sensor_id;sensor_type;location;lat;lon;timestamp;P1;durP1;ratioP1;P2;durP2;ratioP2
75935;SDS011;64614;32.062;34.834;2023-03-11T00:00:58;9.18;;;4.22;;
75935;SDS011;64614;32.062;34.834;2023-03-11T00:03:24;9.68;;;4.28;;
75935;SDS011;64614;32.062;34.834;2023-03-11T00:05:52;10.27;;;4.18;;
75935;SDS011;64614;32.062;34.834;2023-03-11T00:08:20;10.13;;;4.32;;
75935;SDS011;64614;32.062;34.834;2023-03-11T00:10:50;8.80;;;3.92;;
75935;SDS011;64614;32.062;34.834;2023-03-11T00:13:17;9.55;;;3.95;;
75935;SDS011;64614;32.062;34.834;2023-03-11T00:15:44;8.75;;;4.05;;
75935;SDS011;64614;32.062;34.834;2023-03-11T00:18:14;9.02;;;4.00;;
75935;SDS011;64614;32.062;34.834;2023-03-11T00:20:42;9.15;;;4.00;;
75935;SDS011;64614;32.062;34.834;2023-03-11T00:23:10;8.40;;;4.25;;
75935;SDS011;64614;32.062;34.834;2023-03-11T00:25:37;8.90;;;3.92;;
75935;SDS011;64614;32.062;34.834;2023-03-11T00:30:39;9.48;;;3.92;;
75935;SDS011;64614;32.062;34.834;2023-03-11T00:33:06;10.30;;;4.28;;
75935;SDS011;64614;32.062;34.834;2023-03-11T00:35:33;9.52;;;3.90;;
75935;SDS011;64614;32.062;34.834;2023-03-11T00:38:00;8.93;;;3.67;;
75935;SDS011;64614;32.062;34.834;2023-03-11T00:40:29;9.45;;;3.92;;
75935;SDS011;64614;32.062;34.834;2023-03-11T00:42:56;9.55;;;3.80;;
75935;SDS011;64614;32.062;34.834;2023-03-11T00:45:22;9.70;;;4.13;;
75935;SDS011;64614;32.062;34.834;2023-03-11T00:47:48;9.73;;;3.70;;
75935;SDS011;64614;32.062;34.834;2023-03-11T00:50:16;7.35;;;3.42;;
75935;SDS011;64614;32.062;34.834;2023-03-11T00:52:46;9.75;;;4.20;;
75935;SDS011;64614;32.062;34.834;2023-03-11T00:55:17;9.75;;;3.72;;
75935;SDS011;64614;32.062;34.834;2023-03-11T00:57:52;8.38;;;3.55;;
75935;SDS011;64614;32.062;34.834;2023-03-11T01:00:20;7.90;;;3.55;;
75935;SDS011;64614;32.062;34.834;2023-03-11T01:02:47;8.25;;;3.75;;
75935;SDS011;64614;32.062;34.834;2023-03-11T01:05:13;9.65;;;3.92;;
75935;SDS011;64614;32.062;34.834;2023-03-11T01:07:39;9.25;;;3.83;;
75935;SDS011;64614;32.062;34.834;2023-03-11T01:10:06;9.98;;;3.80;;
75935;SDS011;64614;32.062;34.834;2023-03-11T01:12:33;8.60;;;3.50;;
75935;SDS011;64614;32.062;34.834;2023-03-11T01:14:59;9.98;;;4.10;;
75935;SDS011;64614;32.062;34.834;2023-03-11T01:17:25;10.63;;;4.00;;
75935;SDS011;64614;32.062;34.834;2023-03-11T01:19:50;9.15;;;3.83;;
75935;SDS011;64614;32.062;34.834;2023-03-11T01:22:16;8.20;;;3.78;;
75935;SDS011;64614;32.062;34.834;2023-03-11T01:24:42;7.50;;;3.65;;
75935;SDS011;64614;32.062;34.834;2023-03-11T01:27:09;9.07;;;4.03;;
75935;SDS011;64614;32.062;34.834;2023-03-11T01:29:34;8.88;;;4.25;;
75935;SDS011;64614;32.062;34.834;2023-03-11T01:32:01;10.55;;;4.20;;
75935;SDS011;64614;32.062;34.834;2023-03-11T01:34:28;9.30;;;3.85;;
75935;SDS011;64614;32.062;34.834;2023-03-11T01:36:53;10.88;;;3.92;;
75935;SDS011;64614;32.062;34.834;2023-03-11T01:39:19;8.52;;;3.80;;
75935;SDS011;64614;32.062;34.834;2023-03-11T01:41:45;7.85;;;3.70;;
75935;SDS011;64614;32.062;34.834;2023-03-11T01:44:11;9.90;;;3.78;;
75935;SDS011;64614;32.062;34.834;2023-03-11T01:49:16;7.75;;;3.63;;
75935;SDS011;64614;32.062;34.834;2023-03-11T01:51:43;8.13;;;3.70;;
75935;SDS011;64614;32.062;34.834;2023-03-11T01:54:15;9.20;;;3.80;;
75935;SDS011;64614;32.062;34.834;2023-03-11T01:56:45;8.52;;;3.80;;
75935;SDS011;64614;32.062;34.834;2023-03-11T01:59:14;11.30;;;4.13;;
75935;SDS011;64614;32.062;34.834;2023-03-11T02:04:36;7.53;;;3.47;;
75935;SDS011;64614;32.062;34.834;2023-03-11T02:07:03;8.43;;;3.95;;
75935;SDS011;64614;32.062;34.834;2023-03-11T02:09:32;8.43;;;3.42;;
75935;SDS011;64614;32.062;34.834;2023-03-11T02:11:59;7.95;;;3.58;;
75935;SDS011;64614;32.062;34.834;2023-03-11T02:14:27;8.38;;;3.65;;
75935;SDS011;64614;32.062;34.834;2023-03-11T02:16:55;8.32;;;3.78;;
75935;SDS011;64614;32.062;34.834;2023-03-11T02:22:27;7.93;;;3.63;;
75935;SDS011;64614;32.062;34.834;2023-03-11T02:27:35;9.35;;;3.45;;
75935;SDS011;64614;32.062;34.834;2023-03-11T02:30:06;8.40;;;3.90;;
75935;SDS011;64614;32.062;34.834;2023-03-11T02:32:34;8.65;;;3.53;;
75935;SDS011;64614;32.062;34.834;2023-03-11T02:35:03;9.13;;;3.80;;
75935;SDS011;64614;32.062;34.834;2023-03-11T02:37:30;8.88;;;3.50;;
75935;SDS011;64614;32.062;34.834;2023-03-11T02:40:08;7.20;;;3.40;;
75935;SDS011;64614;32.062;34.834;2023-03-11T02:42:44;9.43;;;4.20;;
75935;SDS011;64614;32.062;34.834;2023-03-11T02:45:12;8.57;;;3.58;;
75935;SDS011;64614;32.062;34.834;2023-03-11T02:47:40;8.73;;;3.50;;
75935;SDS011;64614;32.062;34.834;2023-03-11T02:50:08;8.75;;;3.35;;
75935;SDS011;64614;32.062;34.834;2023-03-11T02:52:36;8.77;;;3.33;;
75935;SDS011;64614;32.062;34.834;2023-03-11T02:55:03;7.75;;;3.85;;
75935;SDS011;64614;32.062;34.834;2023-03-11T02:57:30;7.47;;;3.25;;
75935;SDS011;64614;32.062;34.834;2023-03-11T02:59:56;7.60;;;3.30;;
75935;SDS011;64614;32.062;34.834;2023-03-11T03:02:22;8.43;;;3.58;;
75935;SDS011;64614;32.062;34.834;2023-03-11T03:04:48;7.95;;;3.13;;
75935;SDS011;64614;32.062;34.834;2023-03-11T03:07:14;7.70;;;3.20;;
75935;SDS011;64614;32.062;34.834;2023-03-11T03:09:39;9.90;;;3.45;;
75935;SDS011;64614;32.062;34.834;2023-03-11T03:12:05;8.68;;;3.00;;
75935;SDS011;64614;32.062;34.834;2023-03-11T03:14:32;7.78;;;3.40;;
75935;SDS011;64614;32.062;34.834;2023-03-11T03:16:58;9.63;;;3.30;;
75935;SDS011;64614;32.062;34.834;2023-03-11T03:19:24;7.75;;;3.03;;
75935;SDS011;64614;32.062;34.834;2023-03-11T03:21:51;8.55;;;3.30;;
75935;SDS011;64614;32.062;34.834;2023-03-11T03:24:17;7.82;;;3.78;;
75935;SDS011;64614;32.062;34.834;2023-03-11T03:26:44;8.93;;;3.47;;
75935;SDS011;64614;32.062;34.834;2023-03-11T03:29:09;6.93;;;3.30;;
75935;SDS011;64614;32.062;34.834;2023-03-11T03:31:36;8.10;;;3.45;;
75935;SDS011;64614;32.062;34.834;2023-03-11T03:34:02;8.35;;;3.38;;
75935;SDS011;64614;32.062;34.834;2023-03-11T03:36:28;9.50;;;3.92;;
75935;SDS011;64614;32.062;34.834;2023-03-11T03:38:54;7.32;;;3.28;;
75935;SDS011;64614;32.062;34.834;2023-03-11T03:41:20;9.50;;;3.72;;
75935;SDS011;64614;32.062;34.834;2023-03-11T03:43:47;8.05;;;3.60;;
75935;SDS011;64614;32.062;34.834;2023-03-11T03:46:12;9.23;;;3.50;;
75935;SDS011;64614;32.062;34.834;2023-03-11T03:48:38;8.15;;;3.65;;
75935;SDS011;64614;32.062;34.834;2023-03-11T03:51:07;8.10;;;3.95;;
75935;SDS011;64614;32.062;34.834;2023-03-11T03:53:34;7.18;;;3.47;;
75935;SDS011;64614;32.062;34.834;2023-03-11T03:56:07;9.63;;;3.72;;
75935;SDS011;64614;32.062;34.834;2023-03-11T03:58:35;8.73;;;3.78;;
75935;SDS011;64614;32.062;34.834;2023-03-11T04:01:01;9.75;;;3.80;;
75935;SDS011;64614;32.062;34.834;2023-03-11T04:03:28;8.88;;;3.50;;
75935;SDS011;64614;32.062;34.834;2023-03-11T04:06:05;9.00;;;3.53;;
75935;SDS011;64614;32.062;34.834;2023-03-11T04:08:32;8.60;;;3.95;;
75935;SDS011;64614;32.062;34.834;2023-03-11T04:10:58;8.82;;;3.75;;
75935;SDS011;64614;32.062;34.834;2023-03-11T04:13:25;8.90;;;3.90;;
75935;SDS011;64614;32.062;34.834;2023-03-11T04:15:50;8.43;;;3.33;;
75935;SDS011;64614;32.062;34.834;2023-03-11T04:18:16;8.68;;;3.60;;
75935;SDS011;64614;32.062;34.834;2023-03-11T04:20:42;8.93;;;3.90;;
75935;SDS011;64614;32.062;34.834;2023-03-11T04:23:07;9.82;;;3.60;;
75935;SDS011;64614;32.062;34.834;2023-03-11T04:25:34;8.30;;;3.58;;
75935;SDS011;64614;32.062;34.834;2023-03-11T04:28:00;8.40;;;3.80;;
75935;SDS011;64614;32.062;34.834;2023-03-11T04:30:25;9.45;;;3.95;;
75935;SDS011;64614;32.062;34.834;2023-03-11T04:32:51;9.27;;;3.83;;
75935;SDS011;64614;32.062;34.834;2023-03-11T04:35:17;8.80;;;3.58;;
75935;SDS011;64614;32.062;34.834;2023-03-11T04:37:43;7.93;;;3.60;;
75935;SDS011;64614;32.062;34.834;2023-03-11T04:40:09;8.73;;;3.42;;
75935;SDS011;64614;32.062;34.834;2023-03-11T04:42:35;9.02;;;3.60;;
75935;SDS011;64614;32.062;34.834;2023-03-11T04:45:01;13.10;;;3.75;;
75935;SDS011;64614;32.062;34.834;2023-03-11T04:56:35;10.07;;;4.22;;
75935;SDS011;64614;32.062;34.834;2023-03-11T04:59:02;13.20;;;5.03;;
75935;SDS011;64614;32.062;34.834;2023-03-11T05:01:27;11.52;;;4.43;;
75935;SDS011;64614;32.062;34.834;2023-03-11T05:03:53;11.73;;;5.05;;
75935;SDS011;64614;32.062;34.834;2023-03-11T05:06:20;9.30;;;4.72;;
75935;SDS011;64614;32.062;34.834;2023-03-11T05:08:45;10.10;;;4.28;;
75935;SDS011;64614;32.062;34.834;2023-03-11T05:11:11;10.90;;;4.18;;
75935;SDS011;64614;32.062;34.834;2023-03-11T05:17:03;13.88;;;5.63;;
75935;SDS011;64614;32.062;34.834;2023-03-11T05:19:29;13.48;;;6.30;;
75935;SDS011;64614;32.062;34.834;2023-03-11T05:22:01;12.43;;;6.15;;
75935;SDS011;64614;32.062;34.834;2023-03-11T05:32:26;18.92;;;6.90;;
75935;SDS011;64614;32.062;34.834;2023-03-11T05:34:56;14.65;;;7.35;;
75935;SDS011;64614;32.062;34.834;2023-03-11T05:37:21;18.05;;;7.03;;
75935;SDS011;64614;32.062;34.834;2023-03-11T05:39:47;15.65;;;7.22;;
75935;SDS011;64614;32.062;34.834;2023-03-11T05:42:17;15.82;;;7.63;;
75935;SDS011;64614;32.062;34.834;2023-03-11T05:44:44;18.10;;;7.43;;
75935;SDS011;64614;32.062;34.834;2023-03-11T05:47:10;14.85;;;7.25;;
75935;SDS011;64614;32.062;34.834;2023-03-11T05:49:35;17.48;;;7.45;;
75935;SDS011;64614;32.062;34.834;2023-03-11T05:55:17;14.27;;;6.22;;
75935;SDS011;64614;32.062;34.834;2023-03-11T05:57:43;18.85;;;6.55;;
75935;SDS011;64614;32.062;34.834;2023-03-11T06:00:08;17.15;;;6.78;;
75935;SDS011;64614;32.062;34.834;2023-03-11T06:02:38;14.73;;;6.40;;
75935;SDS011;64614;32.062;34.834;2023-03-11T06:05:05;16.95;;;6.65;;
75935;SDS011;64614;32.062;34.834;2023-03-11T06:07:33;15.88;;;6.95;;
75935;SDS011;64614;32.062;34.834;2023-03-11T06:09:59;17.65;;;6.90;;
75935;SDS011;64614;32.062;34.834;2023-03-11T06:12:25;15.70;;;6.80;;
75935;SDS011;64614;32.062;34.834;2023-03-11T06:14:52;13.75;;;6.55;;
75935;SDS011;64614;32.062;34.834;2023-03-11T06:17:18;17.42;;;6.70;;
75935;SDS011;64614;32.062;34.834;2023-03-11T06:22:19;18.80;;;6.72;;
75935;SDS011;64614;32.062;34.834;2023-03-11T06:27:33;15.13;;;6.30;;
75935;SDS011;64614;32.062;34.834;2023-03-11T06:39:59;14.75;;;5.32;;
75935;SDS011;64614;32.062;34.834;2023-03-11T06:42:29;16.75;;;7.25;;
75935;SDS011;64614;32.062;34.834;2023-03-11T06:47:20;81.50;;;41.88;;
75935;SDS011;64614;32.062;34.834;2023-03-11T06:49:46;152.57;;;77.22;;
75935;SDS011;64614;32.062;34.834;2023-03-11T06:52:12;208.00;;;99.80;;
75935;SDS011;64614;32.062;34.834;2023-03-11T06:57:08;378.63;;;199.65;;
75935;SDS011;64614;32.062;34.834;2023-03-11T07:02:04;487.98;;;267.75;;
75935;SDS011;64614;32.062;34.834;2023-03-11T07:04:30;516.75;;;291.00;;
75935;SDS011;64614;32.062;34.834;2023-03-11T07:06:56;550.97;;;314.20;;
75935;SDS011;64614;32.062;34.834;2023-03-11T07:09:22;600.65;;;343.30;;
75935;SDS011;64614;32.062;34.834;2023-03-11T07:14:24;715.83;;;419.00;;
75935;SDS011;64614;32.062;34.834;2023-03-11T07:16:50;778.53;;;450.10;;
75935;SDS011;64614;32.062;34.834;2023-03-11T07:19:16;736.70;;;428.45;;
75935;SDS011;64614;32.062;34.834;2023-03-11T07:21:42;638.15;;;358.70;;
75935;SDS011;64614;32.062;34.834;2023-03-11T07:24:10;336.55;;;157.55;;
75935;SDS011;64614;32.062;34.834;2023-03-11T07:26:39;232.27;;;107.63;;
75935;SDS011;64614;32.062;34.834;2023-03-11T07:29:05;179.70;;;80.78;;
75935;SDS011;64614;32.062;34.834;2023-03-11T07:31:31;143.48;;;63.13;;
75935;SDS011;64614;32.062;34.834;2023-03-11T07:33:59;105.13;;;48.58;;
75935;SDS011;64614;32.062;34.834;2023-03-11T07:36:27;88.65;;;38.72;;
75935;SDS011;64614;32.062;34.834;2023-03-11T07:39:00;51.10;;;23.00;;
75935;SDS011;64614;32.062;34.834;2023-03-11T07:41:42;42.55;;;16.75;;
75935;SDS011;64614;32.062;34.834;2023-03-11T07:44:10;36.88;;;16.25;;
75935;SDS011;64614;32.062;34.834;2023-03-11T07:46:37;35.75;;;16.90;;
75935;SDS011;64614;32.062;34.834;2023-03-11T07:49:11;23.33;;;11.52;;
75935;SDS011;64614;32.062;34.834;2023-03-11T07:51:37;17.50;;;8.93;;
75935;SDS011;64614;32.062;34.834;2023-03-11T07:54:05;18.48;;;7.40;;
75935;SDS011;64614;32.062;34.834;2023-03-11T07:59:18;32.65;;;15.95;;
75935;SDS011;64614;32.062;34.834;2023-03-11T08:05:12;35.33;;;17.30;;
75935;SDS011;64614;32.062;34.834;2023-03-11T08:07:38;32.58;;;15.70;;
75935;SDS011;64614;32.062;34.834;2023-03-11T08:10:04;29.58;;;14.77;;
75935;SDS011;64614;32.062;34.834;2023-03-11T08:12:30;25.80;;;11.43;;
75935;SDS011;64614;32.062;34.834;2023-03-11T08:14:55;27.05;;;12.32;;
75935;SDS011;64614;32.062;34.834;2023-03-11T08:17:22;27.38;;;12.13;;
75935;SDS011;64614;32.062;34.834;2023-03-11T08:19:49;20.70;;;10.35;;
75935;SDS011;64614;32.062;34.834;2023-03-11T08:22:15;19.60;;;8.55;;
75935;SDS011;64614;32.062;34.834;2023-03-11T08:27:07;17.83;;;7.88;;
75935;SDS011;64614;32.062;34.834;2023-03-11T08:29:33;20.60;;;9.02;;
75935;SDS011;64614;32.062;34.834;2023-03-11T08:31:59;14.68;;;7.13;;
75935;SDS011;64614;32.062;34.834;2023-03-11T08:34:26;13.35;;;6.88;;
75935;SDS011;64614;32.062;34.834;2023-03-11T08:36:53;15.35;;;6.95;;
75935;SDS011;64614;32.062;34.834;2023-03-11T08:39:18;17.45;;;6.90;;
75935;SDS011;64614;32.062;34.834;2023-03-11T08:41:44;14.95;;;6.90;;
75935;SDS011;64614;32.062;34.834;2023-03-11T08:44:09;15.65;;;6.30;;
75935;SDS011;64614;32.062;34.834;2023-03-11T08:46:36;12.63;;;5.90;;
75935;SDS011;64614;32.062;34.834;2023-03-11T08:51:38;14.75;;;6.70;;
75935;SDS011;64614;32.062;34.834;2023-03-11T08:54:05;12.68;;;6.13;;
75935;SDS011;64614;32.062;34.834;2023-03-11T08:56:31;13.27;;;5.72;;
75935;SDS011;64614;32.062;34.834;2023-03-11T08:58:56;10.68;;;4.95;;
75935;SDS011;64614;32.062;34.834;2023-03-11T09:01:22;11.30;;;4.68;;
75935;SDS011;64614;32.062;34.834;2023-03-11T09:03:50;9.80;;;4.78;;
75935;SDS011;64614;32.062;34.834;2023-03-11T09:06:15;10.50;;;4.28;;
75935;SDS011;64614;32.062;34.834;2023-03-11T09:08:42;8.20;;;3.78;;
75935;SDS011;64614;32.062;34.834;2023-03-11T09:11:09;8.90;;;4.25;;
75935;SDS011;64614;32.062;34.834;2023-03-11T09:13:37;8.23;;;3.85;;
75935;SDS011;64614;32.062;34.834;2023-03-11T09:18:30;7.97;;;3.85;;
75935;SDS011;64614;32.062;34.834;2023-03-11T09:20:55;7.70;;;3.60;;
75935;SDS011;64614;32.062;34.834;2023-03-11T09:23:24;9.13;;;3.60;;
75935;SDS011;64614;32.062;34.834;2023-03-11T09:25:50;8.52;;;3.72;;
75935;SDS011;64614;32.062;34.834;2023-03-11T09:28:17;7.80;;;3.50;;
75935;SDS011;64614;32.062;34.834;2023-03-11T09:30:42;7.97;;;3.60;;
75935;SDS011;64614;32.062;34.834;2023-03-11T09:33:08;7.55;;;3.25;;
75935;SDS011;64614;32.062;34.834;2023-03-11T09:35:36;7.03;;;3.30;;
75935;SDS011;64614;32.062;34.834;2023-03-11T09:38:03;7.28;;;3.30;;
75935;SDS011;64614;32.062;34.834;2023-03-11T09:40:32;7.53;;;3.50;;
75935;SDS011;64614;32.062;34.834;2023-03-11T09:51:54;8.50;;;3.33;;
75935;SDS011;64614;32.062;34.834;2023-03-11T09:54:28;8.25;;;3.28;;
75935;SDS011;64614;32.062;34.834;2023-03-11T09:57:01;6.28;;;3.10;;
75935;SDS011;64614;32.062;34.834;2023-03-11T09:59:30;7.57;;;3.53;;
75935;SDS011;64614;32.062;34.834;2023-03-11T10:01:59;6.35;;;3.13;;
75935;SDS011;64614;32.062;34.834;2023-03-11T10:07:00;7.18;;;2.95;;
75935;SDS011;64614;32.062;34.834;2023-03-11T10:09:38;6.60;;;3.10;;
75935;SDS011;64614;32.062;34.834;2023-03-11T10:15:07;7.03;;;2.78;;
75935;SDS011;64614;32.062;34.834;2023-03-11T10:23:23;7.35;;;2.72;;
75935;SDS011;64614;32.062;34.834;2023-03-11T10:26:20;6.28;;;2.70;;
75935;SDS011;64614;32.062;34.834;2023-03-11T10:28:46;5.65;;;2.72;;
75935;SDS011;64614;32.062;34.834;2023-03-11T10:39:22;5.72;;;2.53;;
75935;SDS011;64614;32.062;34.834;2023-03-11T10:44:19;6.53;;;2.83;;
75935;SDS011;64614;32.062;34.834;2023-03-11T10:46:52;6.28;;;2.88;;
75935;SDS011;64614;32.062;34.834;2023-03-11T10:49:18;6.57;;;2.90;;
75935;SDS011;64614;32.062;34.834;2023-03-11T10:51:44;6.45;;;2.70;;
75935;SDS011;64614;32.062;34.834;2023-03-11T10:54:26;7.85;;;3.22;;
75935;SDS011;64614;32.062;34.834;2023-03-11T10:56:58;6.90;;;2.83;;
75935;SDS011;64614;32.062;34.834;2023-03-11T10:59:30;5.45;;;2.60;;
75935;SDS011;64614;32.062;34.834;2023-03-11T11:02:22;7.28;;;3.08;;
75935;SDS011;64614;32.062;34.834;2023-03-11T11:08:03;7.32;;;2.85;;
75935;SDS011;64614;32.062;34.834;2023-03-11T11:10:36;10.73;;;3.30;;
75935;SDS011;64614;32.062;34.834;2023-03-11T11:31:23;8.65;;;3.30;;
75935;SDS011;64614;32.062;34.834;2023-03-11T11:50:41;7.47;;;3.00;;
75935;SDS011;64614;32.062;34.834;2023-03-11T12:14:40;6.20;;;2.80;;
75935;SDS011;64614;32.062;34.834;2023-03-11T12:36:59;5.95;;;2.60;;
75935;SDS011;64614;32.062;34.834;2023-03-11T12:44:38;4.88;;;2.13;;
75935;SDS011;64614;32.062;34.834;2023-03-11T12:49:42;4.63;;;2.20;;
75935;SDS011;64614;32.062;34.834;2023-03-11T12:52:28;4.93;;;2.25;;
75935;SDS011;64614;32.062;34.834;2023-03-11T12:57:49;4.63;;;2.35;;
75935;SDS011;64614;32.062;34.834;2023-03-11T13:00:44;4.20;;;2.03;;
75935;SDS011;64614;32.062;34.834;2023-03-11T13:08:48;4.07;;;2.20;;
75935;SDS011;64614;32.062;34.834;2023-03-11T13:17:39;5.05;;;2.03;;
75935;SDS011;64614;32.062;34.834;2023-03-11T13:19:51;5.25;;;2.45;;
75935;SDS011;64614;32.062;34.834;2023-03-11T13:25:26;4.78;;;2.45;;
75935;SDS011;64614;32.062;34.834;2023-03-11T13:27:55;4.90;;;2.28;;
75935;SDS011;64614;32.062;34.834;2023-03-11T13:30:39;3.42;;;1.90;;
75935;SDS011;64614;32.062;34.834;2023-03-11T13:49:27;4.50;;;1.80;;
75935;SDS011;64614;32.062;34.834;2023-03-11T13:52:06;5.20;;;2.15;;
75935;SDS011;64614;32.062;34.834;2023-03-11T13:54:59;4.68;;;2.10;;
75935;SDS011;64614;32.062;34.834;2023-03-11T13:57:34;5.57;;;2.15;;
75935;SDS011;64614;32.062;34.834;2023-03-11T14:00:15;4.63;;;2.17;;
75935;SDS011;64614;32.062;34.834;2023-03-11T14:02:54;5.80;;;2.00;;
75935;SDS011;64614;32.062;34.834;2023-03-11T14:16:13;6.20;;;2.22;;
75935;SDS011;64614;32.062;34.834;2023-03-11T14:21:44;5.57;;;2.50;;
75935;SDS011;64614;32.062;34.834;2023-03-11T14:24:14;7.90;;;2.83;;
75935;SDS011;64614;32.062;34.834;2023-03-11T14:26:41;6.57;;;2.53;;
75935;SDS011;64614;32.062;34.834;2023-03-11T14:29:14;5.15;;;2.50;;
75935;SDS011;64614;32.062;34.834;2023-03-11T14:31:42;6.15;;;2.65;;
75935;SDS011;64614;32.062;34.834;2023-03-11T14:36:42;6.55;;;2.65;;
75935;SDS011;64614;32.062;34.834;2023-03-11T14:39:38;8.88;;;2.83;;
75935;SDS011;64614;32.062;34.834;2023-03-11T14:44:34;8.07;;;2.95;;
75935;SDS011;64614;32.062;34.834;2023-03-11T14:50:02;7.13;;;2.95;;
75935;SDS011;64614;32.062;34.834;2023-03-11T15:00:52;12.93;;;3.78;;
75935;SDS011;64614;32.062;34.834;2023-03-11T15:08:57;10.05;;;3.22;;
75935;SDS011;64614;32.062;34.834;2023-03-11T15:11:26;10.68;;;3.38;;
75935;SDS011;64614;32.062;34.834;2023-03-11T15:13:54;7.25;;;3.03;;
75935;SDS011;64614;32.062;34.834;2023-03-11T15:16:41;9.60;;;3.35;;
75935;SDS011;64614;32.062;34.834;2023-03-11T15:25:00;7.28;;;3.20;;
75935;SDS011;64614;32.062;34.834;2023-03-11T15:27:32;9.77;;;3.50;;
75935;SDS011;64614;32.062;34.834;2023-03-11T15:30:00;8.70;;;3.15;;
75935;SDS011;64614;32.062;34.834;2023-03-11T15:34:59;12.20;;;4.13;;
75935;SDS011;64614;32.062;34.834;2023-03-11T15:37:26;8.38;;;3.30;;
75935;SDS011;64614;32.062;34.834;2023-03-11T15:39:55;7.93;;;3.67;;
75935;SDS011;64614;32.062;34.834;2023-03-11T15:47:32;7.63;;;3.47;;
75935;SDS011;64614;32.062;34.834;2023-03-11T15:50:21;8.82;;;3.75;;
75935;SDS011;64614;32.062;34.834;2023-03-11T15:52:49;8.40;;;3.10;;
75935;SDS011;64614;32.062;34.834;2023-03-11T15:55:16;8.32;;;2.85;;
75935;SDS011;64614;32.062;34.834;2023-03-11T15:57:44;8.02;;;3.22;;
75935;SDS011;64614;32.062;34.834;2023-03-11T16:00:15;8.43;;;3.30;;
75935;SDS011;64614;32.062;34.834;2023-03-11T16:05:19;8.85;;;3.42;;
75935;SDS011;64614;32.062;34.834;2023-03-11T16:10:22;7.13;;;3.10;;
75935;SDS011;64614;32.062;34.834;2023-03-11T16:12:51;8.57;;;3.03;;
75935;SDS011;64614;32.062;34.834;2023-03-11T16:20:30;8.63;;;3.20;;
75935;SDS011;64614;32.062;34.834;2023-03-11T16:25:38;7.45;;;2.88;;
75935;SDS011;64614;32.062;34.834;2023-03-11T16:28:04;7.05;;;3.00;;
75935;SDS011;64614;32.062;34.834;2023-03-11T16:30:34;9.48;;;3.42;;
75935;SDS011;64614;32.062;34.834;2023-03-11T16:33:00;10.77;;;3.70;;
75935;SDS011;64614;32.062;34.834;2023-03-11T16:35:28;8.07;;;3.10;;
75935;SDS011;64614;32.062;34.834;2023-03-11T16:37:55;10.23;;;3.30;;
75935;SDS011;64614;32.062;34.834;2023-03-11T16:40:21;8.73;;;3.28;;
75935;SDS011;64614;32.062;34.834;2023-03-11T16:42:57;6.82;;;3.20;;
75935;SDS011;64614;32.062;34.834;2023-03-11T16:45:25;7.60;;;3.00;;
75935;SDS011;64614;32.062;34.834;2023-03-11T16:47:51;8.13;;;3.40;;
75935;SDS011;64614;32.062;34.834;2023-03-11T16:50:18;7.97;;;3.03;;
75935;SDS011;64614;32.062;34.834;2023-03-11T16:52:45;8.00;;;3.17;;
75935;SDS011;64614;32.062;34.834;2023-03-11T16:55:11;7.68;;;2.95;;
75935;SDS011;64614;32.062;34.834;2023-03-11T17:00:13;7.63;;;3.22;;
75935;SDS011;64614;32.062;34.834;2023-03-11T17:18:40;7.65;;;3.35;;
75935;SDS011;64614;32.062;34.834;2023-03-11T17:31:14;9.07;;;3.10;;
75935;SDS011;64614;32.062;34.834;2023-03-11T17:33:41;7.38;;;3.35;;
75935;SDS011;64614;32.062;34.834;2023-03-11T17:36:10;8.07;;;3.10;;
75935;SDS011;64614;32.062;34.834;2023-03-11T17:38:38;7.03;;;2.70;;
75935;SDS011;64614;32.062;34.834;2023-03-11T17:41:08;8.60;;;3.15;;
75935;SDS011;64614;32.062;34.834;2023-03-11T17:43:35;7.70;;;3.42;;
75935;SDS011;64614;32.062;34.834;2023-03-11T18:18:39;9.73;;;3.60;;
75935;SDS011;64614;32.062;34.834;2023-03-11T18:23:40;7.00;;;3.30;;
75935;SDS011;64614;32.062;34.834;2023-03-11T18:26:13;7.40;;;3.17;;
75935;SDS011;64614;32.062;34.834;2023-03-11T18:28:40;8.30;;;3.30;;
75935;SDS011;64614;32.062;34.834;2023-03-11T18:33:45;7.40;;;3.22;;
75935;SDS011;64614;32.062;34.834;2023-03-11T18:36:16;8.80;;;3.33;;
75935;SDS011;64614;32.062;34.834;2023-03-11T18:38:44;7.75;;;3.50;;
75935;SDS011;64614;32.062;34.834;2023-03-11T18:41:11;7.68;;;3.10;;
75935;SDS011;64614;32.062;34.834;2023-03-11T18:43:37;7.35;;;3.17;;
75935;SDS011;64614;32.062;34.834;2023-03-11T18:46:06;6.57;;;3.30;;
75935;SDS011;64614;32.062;34.834;2023-03-11T18:48:37;8.90;;;3.25;;
75935;SDS011;64614;32.062;34.834;2023-03-11T18:51:03;8.25;;;3.22;;
75935;SDS011;64614;32.062;34.834;2023-03-11T18:53:29;9.00;;;3.63;;
75935;SDS011;64614;32.062;34.834;2023-03-11T18:58:45;8.05;;;3.17;;
75935;SDS011;64614;32.062;34.834;2023-03-11T19:01:12;6.45;;;2.88;;
75935;SDS011;64614;32.062;34.834;2023-03-11T19:03:40;6.97;;;3.30;;
75935;SDS011;64614;32.062;34.834;2023-03-11T19:06:08;6.65;;;3.08;;
75935;SDS011;64614;32.062;34.834;2023-03-11T19:08:35;6.25;;;3.03;;
75935;SDS011;64614;32.062;34.834;2023-03-11T19:11:05;7.50;;;3.40;;
75935;SDS011;64614;32.062;34.834;2023-03-11T19:13:33;6.82;;;3.22;;
75935;SDS011;64614;32.062;34.834;2023-03-11T19:18:36;7.93;;;3.30;;
75935;SDS011;64614;32.062;34.834;2023-03-11T19:21:07;7.47;;;3.42;;
75935;SDS011;64614;32.062;34.834;2023-03-11T19:23:34;6.47;;;3.17;;
75935;SDS011;64614;32.062;34.834;2023-03-11T19:28:29;7.22;;;3.58;;
75935;SDS011;64614;32.062;34.834;2023-03-11T19:33:20;8.32;;;3.42;;
75935;SDS011;64614;32.062;34.834;2023-03-11T19:35:52;8.93;;;3.20;;
75935;SDS011;64614;32.062;34.834;2023-03-11T19:38:20;7.13;;;3.50;;
75935;SDS011;64614;32.062;34.834;2023-03-11T19:40:50;7.38;;;3.42;;
75935;SDS011;64614;32.062;34.834;2023-03-11T19:43:24;8.70;;;3.45;;
75935;SDS011;64614;32.062;34.834;2023-03-11T19:45:51;7.32;;;3.03;;
75935;SDS011;64614;32.062;34.834;2023-03-11T19:48:17;7.03;;;3.38;;
75935;SDS011;64614;32.062;34.834;2023-03-11T19:58:30;8.52;;;3.95;;
75935;SDS011;64614;32.062;34.834;2023-03-11T20:06:06;9.40;;;4.05;;
75935;SDS011;64614;32.062;34.834;2023-03-11T20:13:44;9.75;;;3.97;;
75935;SDS011;64614;32.062;34.834;2023-03-11T20:16:11;8.30;;;4.10;;
75935;SDS011;64614;32.062;34.834;2023-03-11T20:21:11;8.82;;;3.65;;
75935;SDS011;64614;32.062;34.834;2023-03-11T20:23:37;8.00;;;3.55;;
75935;SDS011;64614;32.062;34.834;2023-03-11T20:26:14;7.90;;;4.05;;
75935;SDS011;64614;32.062;34.834;2023-03-11T20:28:47;9.10;;;4.18;;
75935;SDS011;64614;32.062;34.834;2023-03-11T20:33:52;8.38;;;4.10;;
75935;SDS011;64614;32.062;34.834;2023-03-11T20:36:20;8.95;;;4.20;;
75935;SDS011;64614;32.062;34.834;2023-03-11T20:38:50;9.40;;;4.25;;
75935;SDS011;64614;32.062;34.834;2023-03-11T20:41:17;9.10;;;4.32;;
75935;SDS011;64614;32.062;34.834;2023-03-11T20:56:56;8.75;;;4.43;;
75935;SDS011;64614;32.062;34.834;2023-03-11T20:59:24;9.00;;;4.22;;
75935;SDS011;64614;32.062;34.834;2023-03-11T21:01:50;9.30;;;4.13;;
75935;SDS011;64614;32.062;34.834;2023-03-11T21:04:15;10.23;;;4.00;;
75935;SDS011;64614;32.062;34.834;2023-03-11T21:06:41;9.48;;;4.47;;
75935;SDS011;64614;32.062;34.834;2023-03-11T21:09:10;9.65;;;4.75;;
75935;SDS011;64614;32.062;34.834;2023-03-11T21:11:38;10.52;;;4.80;;
75935;SDS011;64614;32.062;34.834;2023-03-11T21:14:06;9.70;;;4.43;;
75935;SDS011;64614;32.062;34.834;2023-03-11T21:16:40;10.00;;;4.70;;
75935;SDS011;64614;32.062;34.834;2023-03-11T21:19:06;11.60;;;4.15;;